METAR Data
IDs: Format: Raw Decoded Include TAF

Data at: 1640 UTC 30 Oct 2020

KPGV 301635Z AUTO 34010G16KT 10SM BKN037 BKN043 17/09 A2997 RMK AO2
KPGV 301615Z AUTO 34013G16KT 10SM BKN037 17/10 A2996 RMK AO2
KPGV 301555Z AUTO 34011G16KT 10SM BKN032 17/10 A2995 RMK AO2
KPGV 301535Z AUTO 35010G20KT 10SM SCT030 SCT037 17/10 A2994 RMK AO2
KPGV 301515Z AUTO 36011G15KT 7SM BKN026 BKN033 17/11 A2993 RMK AO2
KPGV 301455Z AUTO 36010G17KT 10SM BKN028 BKN033 16/10 A2992 RMK AO2
KPGV 301435Z AUTO 35009G18KT 10SM SCT022 16/11 A2990 RMK AO2
KPGV 301415Z AUTO 34011G17KT 10SM SCT017 SCT022 SCT060 15/11 A2990 RMK AO2
KPGV 301355Z AUTO 35007G14KT 10SM BKN015 BKN021 15/12 A2988 RMK AO2
KPGV 301335Z AUTO 34008KT 10SM BKN013 BKN055 15/12 A2986 RMK AO2
KPGV 301315Z AUTO 33008G17KT 10SM OVC013 14/12 A2985 RMK AO2
KPGV 301255Z AUTO 34011G18KT 7SM OVC011 15/12 A2983 RMK AO2
KPGV 301235Z AUTO 34011G21KT 10SM BKN009 OVC013 15/13 A2980 RMK AO2
KPGV 301215Z AUTO 34012G16KT 7SM OVC009 16/14 A2977 RMK AO2
KPGV 301155Z AUTO 35012G17KT 10SM OVC013 17/15 A2974 RMK AO2
KPGV 301135Z AUTO 34008KT 10SM SCT013 BKN018 OVC028 19/17 A2970 RMK AO2
KPGV 301115Z AUTO 31006KT 10SM SCT020 SCT029 BKN039 20/17 A2968 RMK AO2
KPGV 301055Z AUTO 30005KT 10SM SCT020 SCT026 BKN038 20/17 A2967 RMK AO2
KPGV 301035Z AUTO 28003KT 10SM SCT026 BKN031 20/17 A2965 RMK AO2
KPGV 301015Z AUTO 28003KT 10SM SCT032 20/17 A2963 RMK AO2
KPGV 300955Z AUTO 26010KT 10SM CLR 20/17 A2962 RMK AO2 P0001
KPGV 300935Z AUTO 26009KT 10SM SCT080 20/17 A2961 RMK AO2 P0001
KPGV 300915Z AUTO 26007KT 10SM -DZ SCT003 SCT007 SCT038 19/17 A2960 RMK AO2 P0001
KPGV 300855Z AUTO 25007KT 10SM SCT003 SCT008 SCT015 19/17 A2960 RMK AO2
KPGV 300835Z AUTO 25007KT 10SM +RA SCT001 SCT008 BKN060 19/17 A2959 RMK AO2
KPGV 300815Z AUTO 24010KT 10SM SCT002 SCT007 SCT011 20/18 A2959 RMK AO2
KPGV 300755Z AUTO 26008G19KT 10SM RA SCT005 BKN012 OVC048 20/18 A2959 RMK AO2 P0006
KPGV 300735Z AUTO 22012G21KT 10SM SCT026 SCT031 BKN038 25/21 A2953 RMK AO2
KPGV 300715Z AUTO 22012G19KT 10SM SCT028 SCT035 25/21 A2954 RMK AO2
KPGV 300655Z AUTO 23012G19KT 10SM SCT026 SCT031 SCT060 25/21 A2954 RMK AO2
KPGV 300635Z AUTO 24011G16KT 10SM SCT024 SCT033 SCT047 25/22 A2954 RMK AO2
KPGV 300615Z AUTO 23012G17KT 10SM SCT022 BKN027 BKN045 25/22 A2954 RMK AO2
KPGV 300555Z AUTO 23010G16KT 10SM SCT020 BKN026 25/22 A2954 RMK AO2
KPGV 300535Z AUTO 22009G16KT 10SM BKN020 BKN026 BKN046 25/22 A2956 RMK AO2
KPGV 300515Z AUTO 21012G18KT 10SM BKN018 BKN024 25/22 A2956 RMK AO2
KPGV 300455Z AUTO 22011G17KT 10SM OVC018 25/22 A2957 RMK AO2
KPGV 300435Z AUTO 21013G16KT 10SM BKN018 BKN024 24/22 A2958 RMK AO2
KPGV 300415Z AUTO 21012G19KT 7SM BKN017 BKN070 24/22 A2958 RMK AO2
KPGV 300355Z AUTO 21012G17KT 10SM SCT017 24/22 A2960 RMK AO2
KPGV 300335Z AUTO 21011G17KT 10SM -RA CLR 24/22 A2961 RMK AO2
KPGV 300315Z AUTO 21011G15KT 10SM CLR 24/22 A2961 RMK AO2
KPGV 300255Z AUTO 21010KT 10SM RA SCT003 SCT018 24/22 A2962 RMK AO2
KPGV 300235Z AUTO 21009KT 10SM RA SCT005 25/22 A2962 RMK AO2
KPGV 300215Z AUTO 21013G19KT 10SM -RA CLR 25/22 A2963 RMK AO2
KPGV 300155Z AUTO 22012G16KT 10SM CLR 25/22 A2963 RMK AO2
KPGV 300135Z AUTO 22012G19KT 10SM CLR 25/22 A2963 RMK AO2
KPGV 300115Z AUTO 21016G21KT 10SM CLR 25/22 A2964 RMK AO2
KPGV 300055Z AUTO 22013G17KT 10SM CLR 25/22 A2963 RMK AO2
KPGV 300035Z AUTO 22013G21KT 10SM CLR 25/22 A2963 RMK AO2
KPGV 300015Z AUTO 22012G19KT 10SM CLR 25/21 A2963 RMK AO2
KPGV 292355Z AUTO 21010KT 10SM CLR 26/21 A2963 RMK AO2
KPGV 292335Z AUTO 21011KT 10SM CLR 26/21 A2962 RMK AO2
KPGV 292315Z AUTO 21012G16KT 10SM CLR 26/21 A2962 RMK AO2
KPGV 292255Z AUTO 22010G22KT 10SM CLR 26/21 A2962 RMK AO2
KPGV 292235Z AUTO 22014G24KT 10SM CLR 27/21 A2962 RMK AO2
KPGV 292215Z AUTO 22015G22KT 10SM CLR 27/21 RMK AO2
KPGV 292155Z AUTO 22013G22KT 10SM SCT038 SCT120 27/21 A2962 RMK AO2
KPGV 292135Z AUTO 22015G26KT 10SM SCT038 27/21 A2961 RMK AO2
KPGV 292115Z AUTO 22017G27KT 10SM CLR 28/21 A2961 RMK AO2
KPGV 292055Z AUTO 24018G27KT 10SM CLR 28/21 A2961 RMK AO2
KPGV 292035Z AUTO 23017G26KT 10SM CLR 28/21 A2961 RMK AO2
KPGV 292015Z AUTO 23016G23KT 7SM CLR 28/21 A2960 RMK AO2
KPGV 291955Z AUTO 23018G29KT 10SM CLR 28/21 A2960 RMK AO2
KPGV 291935Z AUTO 23017G35KT 10SM SCT039 29/21 A2959 RMK AO2
KPGV 291915Z AUTO 22024G34KT 10SM SCT039 28/21 A2959 RMK AO2
KPGV 291855Z AUTO 22020G37KT 10SM CLR 29/21 A2959 RMK AO2
KPGV 291835Z AUTO 22023G33KT 10SM SCT039 28/21 A2959 RMK AO2
KPGV 291815Z AUTO 22021G37KT 7SM CLR 29/21 A2960 RMK AO2
KPGV 291755Z AUTO 22026G37KT 10SM CLR 29/21 A2960 RMK AO2
KPGV 291735Z AUTO 22021G30KT 10SM SCT039 28/21 A2962 RMK AO2
KPGV 291715Z AUTO 21027G32KT 7SM SCT031 SCT037 SCT043 28/21 A2963 RMK AO2
KPGV 291515Z AUTO 19020G23KT 7SM SCT018 BKN025 25/22 A2974 RMK AO2
KPGV 291455Z AUTO 21015G22KT 10SM BKN016 BKN025 25/22 A2977 RMK AO2
KPGV 291435Z AUTO 20016G25KT 10SM BKN016 BKN100 25/22 A2977 RMK AO2
KPGV 291415Z AUTO 20011G18KT 10SM SCT016 SCT100 24/21 A2980 RMK AO2
KPGV 291355Z AUTO 19011G15KT 10SM CLR 23/21 A2980 RMK AO2
KPGV 291335Z AUTO 19008KT 10SM CLR 22/20 A2981 RMK AO2
KPGV 291315Z AUTO 18007KT 7SM CLR 21/20 A2981 RMK AO2
KPGV 291255Z AUTO 18008KT 7SM CLR 21/19 A2981 RMK AO2
KPGV 291235Z AUTO 18008KT 10SM CLR 21/19 A2982 RMK AO2
KPGV 291215Z AUTO 19009KT 7SM CLR 21/18 A2983 RMK AO2
KPGV 291155Z AUTO 19009KT 10SM CLR 20/18 A2984 RMK AO2
KPGV 291135Z AUTO 19007KT 10SM CLR 20/18 A2985 RMK AO2
KPGV 291115Z AUTO 19005KT 10SM CLR 20/18 A2986 RMK AO2
KPGV 291055Z AUTO 19006KT 10SM CLR 20/17 A2986 RMK AO2
KPGV 291035Z AUTO 18007KT 10SM CLR 20/17 A2987 RMK AO2
KPGV 291015Z AUTO 19005KT 10SM CLR 20/17 A2988 RMK AO2
KPGV 290955Z AUTO 18005KT 10SM CLR 20/17 A2988 RMK AO2
KPGV 290935Z AUTO 19004KT 10SM CLR 20/17 A2990 RMK AO2
KPGV 290915Z AUTO 20005KT 10SM CLR 20/17 A2991 RMK AO2
KPGV 290855Z AUTO 20005KT 10SM CLR 20/17 A2992 RMK AO2
KPGV 290835Z AUTO 22004KT 10SM CLR 19/17 A2993 RMK AO2
KPGV 290815Z AUTO 20004KT 7SM CLR 20/18 A2993 RMK AO2
KPGV 290755Z AUTO 20003KT 7SM CLR 20/18 A2994 RMK AO2
KPGV 290735Z AUTO 20005KT 10SM CLR 20/17 A2994 RMK AO2
KPGV 290715Z AUTO 20004KT 10SM CLR 20/17 A2995 RMK AO2
KPGV 290655Z AUTO 20004KT 10SM SCT070 20/17 A2997 RMK AO2
KPGV 290635Z AUTO 20006KT 7SM SCT070 20/17 A2997 RMK AO2
KPGV 290615Z AUTO 19006KT 10SM SCT070 20/17 A2998 RMK AO2
KPGV 290555Z AUTO 19008KT 10SM SCT070 20/17 A2998 RMK AO2
KPGV 290535Z AUTO 20006KT 10SM BKN070 21/17 A2999 RMK AO2
KPGV 290515Z AUTO 21006KT 10SM BKN070 21/17 A3000 RMK AO2
KPGV 290455Z AUTO 20007KT 10SM BKN070 21/17 A3000 RMK AO2